Time;durP1;ratioP1;P1;durP2;ratioP2;P2;SDS_P1;SDS_P2;PMS_P1;PMS_P2;Temp;Humidity;BMP_temperature;BMP_pressure;BME280_temperature;BME280_humidity;BME280_pressure;Samples;Min_cycle;Max_cycle;Signal;HPM_P1;HPM_P2
2022/05/29 00:00:35;;;;;;;;;;;;;;;18.10;29.35;96337.16;4233050;28;6277;-64
2022/05/29 00:02:38;;;;;;;;;;;;;;;18.11;29.40;96336.91;4233516;28;5609;-64
2022/05/29 00:04:41;;;;;;;;;;;;;;;18.12;29.45;96321.66;4234701;28;5597;-65
2022/05/29 00:06:47;;;;;;;;;;;;;;;18.15;29.32;96335.34;4233360;28;5532;-64
2022/05/29 00:08:50;;;;;;;;;;;;;;;18.13;29.60;96336.66;4234912;28;5612;-64
2022/05/29 00:10:53;;;;;;;;;;;;;;;18.12;29.46;96329.66;4234178;28;5585;-64
2022/05/29 00:12:56;;;;;;;;;;;;;;;18.07;29.43;96348.34;4233454;28;5520;-64
2022/05/29 00:14:59;;;;;;;;;;;;;;;17.97;29.68;96341.84;4234097;28;5608;-64
2022/05/29 00:17:04;;;;;;;;;;;;;;;17.97;29.69;96349.84;4215403;28;5639;-64
2022/05/29 00:19:08;;;;;;;;;;;;;;;18.00;29.79;96349.34;4217638;28;5682;-64
2022/05/29 00:21:11;;;;;;;;;;;;;;;18.00;29.54;96344.00;4217864;28;6278;-64
2022/05/29 00:23:14;;;;;;;;;;;;;;;17.95;29.91;96343.97;4222025;28;5589;-64
2022/05/29 00:25:18;;;;;;;;;;;;;;;17.90;29.89;96341.25;4215697;28;5870;-65
2022/05/29 00:27:21;;;;;;;;;;;;;;;17.89;29.84;96342.28;4234634;28;5672;-64
2022/05/29 00:29:24;;;;;;;;;;;;;;;17.89;30.05;96336.91;4215854;28;5707;-64
2022/05/29 00:31:28;;;;;;;;;;;;;;;17.90;29.95;96351.13;4234931;28;5621;-64
2022/05/29 00:33:32;;;;;;;;;;;;;;;17.83;30.16;96337.94;4233844;28;5706;-64
2022/05/29 00:35:37;;;;;;;;;;;;;;;17.77;30.12;96336.25;4225537;28;5612;-64
2022/05/29 00:37:42;;;;;;;;;;;;;;;17.72;30.06;96339.69;4232547;28;5869;-64
2022/05/29 00:39:51;;;;;;;;;;;;;;;17.72;30.43;96314.81;4233866;28;5489;-64
2022/05/29 00:41:54;;;;;;;;;;;;;;;17.69;30.39;96321.47;4234790;28;5538;-64
2022/05/29 00:44:16;;;;;;;;;;;;;;;17.63;30.16;96329.63;4215553;28;5620;-64
2022/05/29 00:46:18;;;;;;;;;;;;;;;17.63;30.58;96318.94;4213215;28;5670;-65
2022/05/29 00:48:22;;;;;;;;;;;;;;;17.60;30.68;96322.94;4233773;28;5605;-64
2022/05/29 00:50:26;;;;;;;;;;;;;;;17.64;30.43;96317.88;4234732;28;5715;-64
2022/05/29 00:52:29;;;;;;;;;;;;;;;17.64;30.42;96318.69;4232951;28;5597;-64
2022/05/29 00:54:37;;;;;;;;;;;;;;;17.66;30.55;96315.75;4233882;28;5672;-65
2022/05/29 00:56:41;;;;;;;;;;;;;;;17.65;30.71;96308.81;4232958;28;5643;-64
2022/05/29 00:58:45;;;;;;;;;;;;;;;17.67;30.80;96317.41;4232980;28;5699;-64
2022/05/29 01:00:49;;;;;;;;;;;;;;;17.63;31.00;96300.22;4215581;28;5632;-64
2022/05/29 01:02:53;;;;;;;;;;;;;;;17.61;31.05;96316.53;4233014;28;5076;-64
2022/05/29 01:04:57;;;;;;;;;;;;;;;17.54;30.96;96304.41;4233606;28;5601;-64
2022/05/29 01:07:07;;;;;;;;;;;;;;;17.54;30.99;96302.53;4231572;28;5668;-64
2022/05/29 01:09:11;;;;;;;;;;;;;;;17.53;31.23;96294.75;4228979;28;5596;-64
2022/05/29 01:11:24;;;;;;;;;;;;;;;17.39;31.34;96300.47;4234421;28;5668;-64
2022/05/29 01:13:34;;;;;;;;;;;;;;;17.45;31.45;96301.38;4234001;28;5592;-64
2022/05/29 01:15:46;;;;;;;;;;;;;;;17.49;31.43;96302.47;4233689;28;5592;-64
2022/05/29 01:17:59;;;;;;;;;;;;;;;17.46;31.51;96292.28;4233851;28;5600;-64
2022/05/29 01:20:31;;;;;;;;;;;;;;;17.46;31.28;96294.97;4215992;28;5699;-64
2022/05/29 01:23:12;;;;;;;;;;;;;;;17.48;31.39;96292.03;4216412;28;5682;-63
2022/05/29 01:26:07;;;;;;;;;;;;;;;17.51;31.73;96281.66;4219399;28;5627;-63
2022/05/29 01:28:15;;;;;;;;;;;;;;;17.47;31.70;96277.88;4148210;28;5845;-64
2022/05/29 01:30:21;;;;;;;;;;;;;;;17.43;31.51;96269.53;4165638;28;7777;-64
2022/05/29 01:32:32;;;;;;;;;;;;;;;17.43;31.62;96269.53;4165028;28;5703;-64
2022/05/29 01:34:41;;;;;;;;;;;;;;;17.47;31.62;96264.50;4148559;28;5888;-64
2022/05/29 01:36:49;;;;;;;;;;;;;;;17.46;31.77;96263.72;4159570;28;5809;-64
2022/05/29 01:38:57;;;;;;;;;;;;;;;17.43;31.83;96266.84;4165357;28;5684;-64
2022/05/29 01:41:07;;;;;;;;;;;;;;;17.42;31.80;96259.91;4163345;28;5709;-64
2022/05/29 01:43:21;;;;;;;;;;;;;;;17.41;31.76;96265.50;4149353;28;6449;-64
2022/05/29 01:45:53;;;;;;;;;;;;;;;17.39;32.11;96264.94;4164799;28;5688;-64
2022/05/29 01:48:05;;;;;;;;;;;;;;;17.30;31.99;96253.88;4165374;28;5783;-64
2022/05/29 01:50:24;;;;;;;;;;;;;;;17.26;32.10;96258.09;4165548;28;5692;-64
2022/05/29 01:52:32;;;;;;;;;;;;;;;17.26;32.21;96254.63;4164349;28;5794;-64
2022/05/29 01:54:39;;;;;;;;;;;;;;;17.28;32.14;96258.66;4165685;28;5919;-64
2022/05/29 01:56:45;;;;;;;;;;;;;;;17.24;32.48;96244.19;4155268;28;5703;-64
2022/05/29 01:58:54;;;;;;;;;;;;;;;17.22;32.25;96246.31;4153751;28;5711;-63
2022/05/29 02:01:02;;;;;;;;;;;;;;;17.21;32.54;96255.34;4166547;28;5692;-64
2022/05/29 02:03:09;;;;;;;;;;;;;;;17.18;32.54;96251.31;4213693;28;5783;-64
2022/05/29 02:05:17;;;;;;;;;;;;;;;17.21;32.43;96254.56;4219792;28;5687;-64
2022/05/29 02:09:53;;;;;;;;;;;;;;;17.17;32.63;96243.56;4195963;28;5772;-64
2022/05/29 02:12:01;;;;;;;;;;;;;;;17.14;32.59;96236.06;4203074;28;5775;-64
2022/05/29 02:14:11;;;;;;;;;;;;;;;17.13;32.83;96245.13;4201772;28;5706;-66
2022/05/29 02:16:16;;;;;;;;;;;;;;;17.11;32.93;96236.56;4203061;28;5689;-65
2022/05/29 02:18:24;;;;;;;;;;;;;;;17.07;32.83;96238.91;4206788;28;5686;-64
2022/05/29 02:20:30;;;;;;;;;;;;;;;17.02;32.95;96230.03;4203456;28;5799;-64
2022/05/29 02:22:35;;;;;;;;;;;;;;;17.05;33.08;96234.88;4216202;28;5668;-64
2022/05/29 02:24:43;;;;;;;;;;;;;;;17.07;33.21;96232.75;4218898;28;5069;-64
2022/05/29 02:26:51;;;;;;;;;;;;;;;17.08;33.14;96224.50;4219770;28;5679;-64
2022/05/29 02:28:59;;;;;;;;;;;;;;;17.09;33.14;96225.28;4215549;28;5667;-64
2022/05/29 02:31:16;;;;;;;;;;;;;;;17.05;33.11;96225.00;4202726;28;5704;-64
2022/05/29 02:33:25;;;;;;;;;;;;;;;17.03;33.04;96223.63;4206549;28;5704;-64
2022/05/29 02:35:35;;;;;;;;;;;;;;;16.98;33.14;96223.53;4208958;28;5673;-64
2022/05/29 02:37:43;;;;;;;;;;;;;;;16.95;33.39;96224.84;4186358;28;5693;-64
2022/05/29 02:39:56;;;;;;;;;;;;;;;16.93;33.32;96218.97;4215258;28;5717;-64
2022/05/29 02:42:16;;;;;;;;;;;;;;;16.92;33.58;96227.22;4219701;28;5647;-64
2022/05/29 02:44:35;;;;;;;;;;;;;;;16.92;33.43;96214.69;4232395;28;5500;-64
2022/05/29 02:46:46;;;;;;;;;;;;;;;16.95;33.62;96224.03;4236509;28;5505;-64
2022/05/29 02:48:56;;;;;;;;;;;;;;;16.91;33.68;96206.91;4234725;28;5593;-64
2022/05/29 02:51:06;;;;;;;;;;;;;;;16.85;33.66;96217.50;4233841;28;5826;-64
2022/05/29 02:53:11;;;;;;;;;;;;;;;16.80;33.75;96206.78;4235539;28;5521;-64
2022/05/29 02:55:16;;;;;;;;;;;;;;;16.75;34.00;96222.72;4234651;28;5541;-64
2022/05/29 02:57:19;;;;;;;;;;;;;;;16.72;33.92;96212.53;4236461;28;5513;-65
2022/05/29 02:59:25;;;;;;;;;;;;;;;16.75;34.00;96217.38;4235312;28;5180;-64
2022/05/29 03:01:38;;;;;;;;;;;;;;;16.75;34.10;96209.34;4235280;28;5621;-64
2022/05/29 03:03:53;;;;;;;;;;;;;;;16.72;34.50;96220.53;4234272;28;5617;-64
2022/05/29 03:06:07;;;;;;;;;;;;;;;16.71;34.25;96212.78;4235204;28;5656;-64
2022/05/29 03:08:31;;;;;;;;;;;;;;;16.70;34.33;96214.63;4235296;28;5863;-64
2022/05/29 03:10:38;;;;;;;;;;;;;;;16.68;34.43;96213.28;4228715;28;5521;-64
2022/05/29 03:12:52;;;;;;;;;;;;;;;16.69;34.12;96214.88;4235860;28;7284;-64
2022/05/29 03:15:04;;;;;;;;;;;;;;;16.72;34.41;96215.19;4235031;28;5604;-64
2022/05/29 03:17:15;;;;;;;;;;;;;;;16.71;34.38;96224.25;4235370;28;5908;-63
2022/05/29 03:19:30;;;;;;;;;;;;;;;16.70;34.48;96206.63;4235297;28;5580;-64
2022/05/29 03:21:40;;;;;;;;;;;;;;;16.68;34.33;96205.28;4235192;28;5703;-64
2022/05/29 03:23:56;;;;;;;;;;;;;;;16.66;34.60;96207.34;4235789;28;5604;-64
2022/05/29 03:26:04;;;;;;;;;;;;;;;16.66;34.38;96216.16;4234936;28;5592;-64
2022/05/29 03:28:12;;;;;;;;;;;;;;;16.60;34.53;96211.78;4235350;28;5603;-64
2022/05/29 03:30:18;;;;;;;;;;;;;;;16.56;34.65;96210.69;4217354;28;5620;-65
2022/05/29 03:32:23;;;;;;;;;;;;;;;16.51;34.85;96222.06;4235318;28;5521;-64
2022/05/29 03:34:27;;;;;;;;;;;;;;;16.53;34.64;96222.63;4234877;28;5568;-64
2022/05/29 03:36:30;;;;;;;;;;;;;;;16.56;34.69;96213.34;4234859;28;5605;-64
2022/05/29 03:38:33;;;;;;;;;;;;;;;16.57;34.63;96225.63;4235038;28;5505;-64
2022/05/29 03:40:36;;;;;;;;;;;;;;;16.59;34.88;96212.84;4234300;28;5613;-64
2022/05/29 03:42:39;;;;;;;;;;;;;;;16.62;34.90;96220.34;4221170;28;5818;-64
2022/05/29 03:44:42;;;;;;;;;;;;;;;16.66;34.88;96213.50;4235074;28;5118;-64
2022/05/29 03:46:45;;;;;;;;;;;;;;;16.65;34.90;96217.22;4216529;28;5667;-64
2022/05/29 03:48:48;;;;;;;;;;;;;;;16.68;34.53;96219.41;4234947;28;5593;-64
2022/05/29 03:50:52;;;;;;;;;;;;;;;16.68;34.79;96226.63;4235353;28;5695;-64
2022/05/29 03:52:55;;;;;;;;;;;;;;;16.66;34.74;96232.19;4234640;28;5684;-64
2022/05/29 03:54:58;;;;;;;;;;;;;;;16.63;34.96;96231.84;4235132;28;5497;-64
2022/05/29 03:57:01;;;;;;;;;;;;;;;16.67;34.68;96230.31;4234159;28;5603;-64
2022/05/29 03:59:05;;;;;;;;;;;;;;;16.69;34.65;96230.91;4234661;28;7663;-64
2022/05/29 04:01:08;;;;;;;;;;;;;;;16.66;35.13;96229.50;4235230;28;5633;-65
2022/05/29 04:03:11;;;;;;;;;;;;;;;16.68;35.00;96229.28;4232985;28;5095;-64
2022/05/29 04:05:16;;;;;;;;;;;;;;;16.68;34.84;96235.44;4216761;28;5619;-65
2022/05/29 04:12:03;;;;;;;;;;;;;;;16.73;35.16;96238.16;4235310;28;5603;-64
2022/05/29 04:12:05;;;;;;;;;;;;;;;16.75;34.97;96240.59;4225385;28;5509;-64
2022/05/29 04:14:08;;;;;;;;;;;;;;;16.81;34.93;96245.75;4214600;28;5620;-64
2022/05/29 04:16:14;;;;;;;;;;;;;;;16.87;35.14;96247.47;4234671;28;5525;-64
2022/05/29 04:18:37;;;;;;;;;;;;;;;16.84;34.97;96245.25;4234642;28;5485;-64
2022/05/29 04:20:40;;;;;;;;;;;;;;;16.84;35.02;96244.47;4216768;28;5707;-65
2022/05/29 04:22:44;;;;;;;;;;;;;;;16.90;35.17;96248.03;4234289;28;6310;-64
2022/05/29 04:24:47;;;;;;;;;;;;;;;16.91;34.93;96239.75;4229149;28;6402;-64
2022/05/29 04:26:51;;;;;;;;;;;;;;;17.01;34.88;96252.44;4233743;28;5684;-64
2022/05/29 04:28:54;;;;;;;;;;;;;;;17.10;34.91;96250.94;4234673;28;5605;-64
2022/05/29 04:30:57;;;;;;;;;;;;;;;17.20;35.05;96253.75;4234709;28;5094;-65
2022/05/29 04:32:59;;;;;;;;;;;;;;;17.28;34.79;96256.00;4233391;28;5826;-64
2022/05/29 04:35:09;;;;;;;;;;;;;;;17.35;34.87;96264.63;4234605;28;5502;-64
2022/05/29 04:37:30;;;;;;;;;;;;;;;17.43;34.97;96252.69;4201584;28;6496;-64
2022/05/29 04:39:36;;;;;;;;;;;;;;;17.47;34.75;96253.81;4232137;28;5509;-64
2022/05/29 04:41:39;;;;;;;;;;;;;;;17.52;34.83;96258.41;4234270;28;5509;-64
2022/05/29 04:43:43;;;;;;;;;;;;;;;17.52;34.76;96267.22;4233721;28;5729;-64
2022/05/29 04:45:47;;;;;;;;;;;;;;;17.56;34.83;96267.56;4215585;28;5843;-64
2022/05/29 04:47:50;;;;;;;;;;;;;;;17.57;34.76;96264.63;4234016;28;5675;-64
2022/05/29 04:49:52;;;;;;;;;;;;;;;17.56;35.12;96270.22;4230244;28;5504;-64
2022/05/29 04:51:55;;;;;;;;;;;;;;;17.57;35.06;96275.31;4219811;28;5960;-64
2022/05/29 04:53:58;;;;;;;;;;;;;;;17.55;35.17;96266.72;4234034;28;6206;-65
2022/05/29 04:56:02;;;;;;;;;;;;;;;17.59;35.24;96272.41;4234097;28;5732;-64
2022/05/29 04:58:06;;;;;;;;;;;;;;;17.61;35.19;96262.25;4232144;28;5825;-64
2022/05/29 05:00:10;;;;;;;;;;;;;;;17.63;35.38;96271.63;4227819;28;5719;-64
2022/05/29 05:02:13;;;;;;;;;;;;;;;17.65;35.25;96266.03;4199084;28;5725;-64
2022/05/29 05:04:15;;;;;;;;;;;;;;;17.67;35.17;96274.63;4231176;28;5707;-64
2022/05/29 05:06:19;;;;;;;;;;;;;;;17.68;35.50;96270.91;4229232;28;5686;-64
2022/05/29 05:08:22;;;;;;;;;;;;;;;17.69;35.39;96273.34;4223088;28;5707;-64
2022/05/29 05:10:25;;;;;;;;;;;;;;;17.71;35.45;96275.78;4214725;28;5699;-64
2022/05/29 05:12:29;;;;;;;;;;;;;;;17.72;35.31;96277.38;4209709;28;5833;-65
2022/05/29 05:14:34;;;;;;;;;;;;;;;17.74;35.34;96275.25;4220602;28;5742;-64
2022/05/29 05:16:37;;;;;;;;;;;;;;;17.79;35.37;96282.56;4214897;28;5737;-64
2022/05/29 05:18:40;;;;;;;;;;;;;;;17.81;35.34;96277.75;4214486;28;5830;-64
2022/05/29 05:20:43;;;;;;;;;;;;;;;17.84;35.29;96275.38;4214745;28;5763;-64
2022/05/29 05:22:46;;;;;;;;;;;;;;;17.86;35.36;96277.78;4214663;28;6388;-64
2022/05/29 05:24:49;;;;;;;;;;;;;;;17.87;35.55;96280.22;4216009;28;5707;-64
2022/05/29 05:26:52;;;;;;;;;;;;;;;17.92;35.57;96287.50;4217726;28;5624;-64
2022/05/29 05:28:57;;;;;;;;;;;;;;;17.94;35.41;96283.50;4217909;28;5710;-65
2022/05/29 05:31:00;;;;;;;;;;;;;;;17.93;35.37;96286.44;4217729;28;5707;-64
2022/05/29 05:33:03;;;;;;;;;;;;;;;17.95;35.56;96277.09;4217639;28;5714;-65
2022/05/29 05:35:07;;;;;;;;;;;;;;;17.96;35.51;96277.91;4217339;28;5722;-64
2022/05/29 05:37:24;;;;;;;;;;;;;;;17.99;35.54;96286.22;4181502;28;5764;-64
2022/05/29 05:39:26;;;;;;;;;;;;;;;18.03;35.59;96290.03;4181958;28;5685;-64
2022/05/29 05:41:29;;;;;;;;;;;;;;;18.08;35.47;96275.06;4181462;28;5847;-64
2022/05/29 05:43:32;;;;;;;;;;;;;;;18.14;35.65;96274.06;4182027;28;5772;-64
2022/05/29 05:45:40;;;;;;;;;;;;;;;18.17;35.52;96279.72;4181729;28;5759;-64
2022/05/29 05:47:43;;;;;;;;;;;;;;;18.22;35.42;96285.09;4181802;28;6733;-64
2022/05/29 05:49:46;;;;;;;;;;;;;;;18.26;35.65;96274.72;4181516;28;5772;-65
2022/05/29 05:51:51;;;;;;;;;;;;;;;18.28;35.49;96281.44;4181805;28;5831;-64
2022/05/29 05:53:54;;;;;;;;;;;;;;;18.30;35.39;96276.63;4152718;28;7684;-64
2022/05/29 05:55:57;;;;;;;;;;;;;;;18.31;35.50;96280.91;4165245;28;6435;-64
2022/05/29 05:57:59;;;;;;;;;;;;;;;18.32;35.51;96287.06;4165385;28;5699;-64
2022/05/29 06:00:02;;;;;;;;;;;;;;;18.32;35.61;96282.53;4165226;28;6212;-64
2022/05/29 06:02:10;;;;;;;;;;;;;;;18.34;35.61;96280.41;4155020;28;5768;-64
2022/05/29 06:04:13;;;;;;;;;;;;;;;18.36;35.48;96287.38;4180042;28;5784;-64
2022/05/29 06:06:16;;;;;;;;;;;;;;;18.39;35.69;96282.31;4181228;28;5765;-64
2022/05/29 06:08:19;;;;;;;;;;;;;;;18.41;35.74;96285.56;4182502;28;5833;-64
2022/05/29 06:10:21;;;;;;;;;;;;;;;18.41;35.54;96290.09;4233777;28;5704;-64
2022/05/29 06:12:24;;;;;;;;;;;;;;;18.41;35.49;96292.78;4233465;28;5707;-64
2022/05/29 06:14:27;;;;;;;;;;;;;;;18.39;35.56;96287.69;4233518;28;5095;-64
2022/05/29 06:16:30;;;;;;;;;;;;;;;18.38;35.79;96290.63;4233692;28;5648;-64
2022/05/29 06:18:35;;;;;;;;;;;;;;;18.38;35.65;96286.06;4214898;28;5237;-64
2022/05/29 06:20:37;;;;;;;;;;;;;;;18.38;35.75;96291.41;4227661;27;5613;-65
2022/05/29 06:22:42;;;;;;;;;;;;;;;18.38;35.62;96279.91;4228709;28;6099;-65
2022/05/29 06:24:46;;;;;;;;;;;;;;;18.37;35.75;96279.09;4233770;28;8420;-65
2022/05/29 06:26:57;;;;;;;;;;;;;;;18.36;35.67;96282.84;4236243;28;5607;-65
2022/05/29 06:29:00;;;;;;;;;;;;;;;18.33;35.85;96284.13;4217820;28;5896;-64
2022/05/29 06:31:03;;;;;;;;;;;;;;;18.34;35.65;96287.63;4236152;28;5695;-64
2022/05/29 06:33:16;;;;;;;;;;;;;;;18.35;35.46;96289.25;4236709;28;5691;-64
2022/05/29 06:35:39;;;;;;;;;;;;;;;18.42;35.61;96287.16;4235915;28;5679;-64
2022/05/29 06:37:43;;;;;;;;;;;;;;;18.46;35.50;96288.28;4236230;28;5691;-64
2022/05/29 06:39:47;;;;;;;;;;;;;;;18.53;35.42;96278.16;4236411;28;5608;-64
2022/05/29 06:41:52;;;;;;;;;;;;;;;18.61;35.41;96283.03;4236533;28;5805;-65
2022/05/29 06:43:55;;;;;;;;;;;;;;;18.66;35.47;96290.31;4236731;28;5621;-64
2022/05/29 06:45:58;;;;;;;;;;;;;;;18.78;35.21;96279.44;4218420;28;5676;-64
2022/05/29 06:48:01;;;;;;;;;;;;;;;18.95;35.13;96282.78;4236605;28;5703;-64
2022/05/29 06:50:05;;;;;;;;;;;;;;;19.09;34.91;96286.59;4236025;28;5589;-64
2022/05/29 06:52:11;;;;;;;;;;;;;;;19.22;34.90;96281.84;4236372;28;5592;-64
2022/05/29 06:54:14;;;;;;;;;;;;;;;19.32;34.89;96284.59;4236241;28;5613;-64
2022/05/29 06:56:18;;;;;;;;;;;;;;;19.38;34.71;96280.88;4236300;28;5605;-64
2022/05/29 06:58:22;;;;;;;;;;;;;;;19.45;34.74;96284.09;4236110;28;5604;-64
2022/05/29 07:07:30;;;;;;;;;;;;;;;19.56;34.63;96279.63;4217819;28;5703;-65
2022/05/29 07:09:36;;;;;;;;;;;;;;;19.59;34.86;96285.25;4217810;28;5678;-65
2022/05/29 07:11:42;;;;;;;;;;;;;;;19.61;34.65;96285.03;4218009;28;5773;-64
2022/05/29 07:13:45;;;;;;;;;;;;;;;19.65;34.55;96286.91;4236355;28;6254;-64
2022/05/29 07:15:48;;;;;;;;;;;;;;;19.67;34.53;96281.28;4235814;28;5688;-64
2022/05/29 07:17:52;;;;;;;;;;;;;;;19.70;34.47;96283.41;4235905;28;6369;-65
2022/05/29 07:19:54;;;;;;;;;;;;;;;19.69;34.54;96290.66;4235693;28;5617;-64
2022/05/29 07:21:58;;;;;;;;;;;;;;;19.69;34.42;96289.84;4235640;28;5593;-65
2022/05/29 07:24:03;;;;;;;;;;;;;;;19.70;34.57;96286.09;4235782;28;5616;-65
2022/05/29 07:26:06;;;;;;;;;;;;;;;19.69;34.48;96296.03;4235809;28;5641;-65
2022/05/29 07:28:09;;;;;;;;;;;;;;;19.68;34.46;96291.72;4217371;28;5755;-65
2022/05/29 07:30:14;;;;;;;;;;;;;;;19.67;34.40;96298.16;4235317;28;5682;-64
2022/05/29 07:32:17;;;;;;;;;;;;;;;19.68;34.47;96288.25;4235465;28;5610;-65
2022/05/29 07:34:20;;;;;;;;;;;;;;;19.64;34.36;96296.03;4235273;28;5601;-65
2022/05/29 07:36:24;;;;;;;;;;;;;;;19.63;34.30;96286.38;4216143;28;5707;-65
2022/05/29 07:38:28;;;;;;;;;;;;;;;19.62;34.29;96292.81;4218615;28;5608;-65
2022/05/29 07:40:33;;;;;;;;;;;;;;;19.63;34.22;96289.03;4218255;28;5604;-65
2022/05/29 07:44:56;;;;;;;;;;;;;;;19.64;34.28;96289.84;4218426;28;5728;-65
2022/05/29 07:46:59;;;;;;;;;;;;;;;19.65;34.16;96292.25;4218450;28;5625;-65
2022/05/29 07:49:02;;;;;;;;;;;;;;;19.66;34.25;96287.72;4217217;28;5628;-65
2022/05/29 07:51:05;;;;;;;;;;;;;;;19.65;34.31;96286.09;4218659;28;5707;-65
2022/05/29 07:53:09;;;;;;;;;;;;;;;19.64;34.36;96292.53;4218639;28;5616;-64
2022/05/29 07:55:13;;;;;;;;;;;;;;;19.63;34.43;96289.03;4218731;28;5082;-64
2022/05/29 07:57:17;;;;;;;;;;;;;;;19.63;34.43;96283.69;4218213;28;8385;-65
2022/05/29 07:59:21;;;;;;;;;;;;;;;19.64;34.34;96287.97;4218287;28;5615;-65
2022/05/29 08:01:24;;;;;;;;;;;;;;;19.63;34.55;96283.69;4218354;28;5683;-65
2022/05/29 08:03:27;;;;;;;;;;;;;;;19.64;34.40;96287.16;4218285;28;5616;-65
2022/05/29 08:05:33;;;;;;;;;;;;;;;19.65;34.49;96278.84;4217889;28;5750;-64
2022/05/29 08:07:36;;;;;;;;;;;;;;;19.68;34.40;96283.69;4218097;28;5648;-65
2022/05/29 08:09:39;;;;;;;;;;;;;;;19.72;34.43;96286.66;4217966;28;5612;-65
2022/05/29 08:11:43;;;;;;;;;;;;;;;19.72;34.30;96287.47;4218201;28;5682;-64
2022/05/29 08:13:47;;;;;;;;;;;;;;;19.70;34.37;96284.22;4200100;28;6378;-64
2022/05/29 08:15:50;;;;;;;;;;;;;;;19.71;34.35;96277.81;4218379;28;5428;-65
2022/05/29 08:17:53;;;;;;;;;;;;;;;19.77;34.37;96281.31;4217893;28;5608;-65
2022/05/29 08:19:56;;;;;;;;;;;;;;;19.81;34.23;96278.91;4217734;28;5616;-65
2022/05/29 08:21:59;;;;;;;;;;;;;;;19.85;34.30;96280.00;4199935;28;5692;-65
2022/05/29 08:31:41;;;;;;;;;;;;;;;19.91;34.68;96278.94;4217923;28;5675;-65
2022/05/29 08:33:46;;;;;;;;;;;;;;;19.91;34.35;96276.25;4218086;28;5691;-65
2022/05/29 08:35:55;;;;;;;;;;;;;;;19.92;34.45;96272.50;4218984;28;5710;-65
2022/05/29 08:38:00;;;;;;;;;;;;;;;19.91;34.25;96281.59;4234732;28;5091;-65
2022/05/29 08:40:03;;;;;;;;;;;;;;;19.84;34.08;96268.47;4234267;28;6279;-65
2022/05/29 08:42:06;;;;;;;;;;;;;;;19.85;34.15;96269.28;4234695;28;5592;-65
2022/05/29 08:44:13;;;;;;;;;;;;;;;19.89;33.87;96273.03;4234569;28;5741;-65
2022/05/29 08:46:21;;;;;;;;;;;;;;;19.94;33.86;96267.69;4234716;28;5641;-67
2022/05/29 08:48:27;;;;;;;;;;;;;;;19.93;33.52;96268.72;4234755;28;5595;-65
2022/05/29 08:50:37;;;;;;;;;;;;;;;19.89;33.67;96275.72;4234389;28;5797;-65
2022/05/29 08:52:53;;;;;;;;;;;;;;;19.89;33.47;96278.38;4234544;28;5668;-65
2022/05/29 08:55:02;;;;;;;;;;;;;;;19.90;33.50;96275.44;4217597;28;6284;-65
2022/05/29 08:57:18;;;;;;;;;;;;;;;19.92;33.30;96264.44;4217475;28;5619;-65
2022/05/29 08:59:35;;;;;;;;;;;;;;;19.85;33.15;96261.22;4218629;28;5626;-65
2022/05/29 09:02:00;;;;;;;;;;;;;;;19.81;33.15;96262.81;4203066;28;5688;-65
2022/05/29 09:04:07;;;;;;;;;;;;;;;19.82;33.03;96253.69;4230477;28;5601;-66
2022/05/29 09:06:14;;;;;;;;;;;;;;;19.87;32.93;96261.75;4237672;28;7774;-66
2022/05/29 09:08:20;;;;;;;;;;;;;;;19.85;32.78;96253.97;4236696;28;5600;-66
2022/05/29 09:10:33;;;;;;;;;;;;;;;19.81;32.72;96260.94;4230676;28;5671;-65
2022/05/29 09:12:41;;;;;;;;;;;;;;;19.72;32.59;96247.25;4236159;28;5633;-65
2022/05/29 09:14:49;;;;;;;;;;;;;;;19.69;32.43;96258.47;4224564;28;5631;-65
2022/05/29 09:16:59;;;;;;;;;;;;;;;19.74;32.53;96263.88;4216945;28;5757;-65
2022/05/29 09:19:11;;;;;;;;;;;;;;;19.81;32.37;96260.13;4222381;28;5724;-65
2022/05/29 09:21:18;;;;;;;;;;;;;;;19.77;32.14;96255.28;4226885;28;6351;-66
2022/05/29 09:23:27;;;;;;;;;;;;;;;19.76;32.13;96253.69;4221394;28;5711;-65
2022/05/29 09:25:32;;;;;;;;;;;;;;;19.76;32.14;96242.97;4232989;28;6483;-65
2022/05/29 09:27:38;;;;;;;;;;;;;;;19.80;32.00;96250.47;4234498;28;5653;-65
2022/05/29 09:29:40;;;;;;;;;;;;;;;19.85;31.92;96245.13;4234671;28;5690;-65
2022/05/29 09:31:44;;;;;;;;;;;;;;;19.90;31.85;96247.81;4215464;28;5834;-65
2022/05/29 09:33:49;;;;;;;;;;;;;;;19.95;32.03;96248.66;4233080;28;6401;-65
2022/05/29 09:36:00;;;;;;;;;;;;;;;19.92;31.61;96248.34;4218252;28;5706;-65
2022/05/29 09:38:13;;;;;;;;;;;;;;;19.95;31.70;96261.25;4234275;28;5803;-65
2022/05/29 09:40:20;;;;;;;;;;;;;;;19.89;31.45;96246.19;4225081;28;5726;-65
2022/05/29 09:42:27;;;;;;;;;;;;;;;19.88;31.50;96250.75;4234526;28;5781;-66
2022/05/29 09:44:30;;;;;;;;;;;;;;;19.91;31.28;96244.06;4233997;28;5703;-65
2022/05/29 09:46:35;;;;;;;;;;;;;;;19.90;31.36;96248.63;4223989;28;5726;-65
2022/05/29 09:51:00;;;;;;;;;;;;;;;19.84;31.20;96252.38;4217520;28;5735;-66
2022/05/29 09:53:03;;;;;;;;;;;;;;;19.75;30.99;96246.72;4230538;28;5668;-65
2022/05/29 09:55:20;;;;;;;;;;;;;;;19.72;31.17;96251.81;4217507;28;5722;-66
2022/05/29 09:57:26;;;;;;;;;;;;;;;19.76;31.18;96242.97;4219440;28;5706;-65
2022/05/29 09:59:29;;;;;;;;;;;;;;;19.86;31.08;96241.38;4234268;28;5699;-68
2022/05/29 10:01:34;;;;;;;;;;;;;;;19.90;30.87;96231.72;4233570;28;5707;-65
2022/05/29 10:03:51;;;;;;;;;;;;;;;19.99;30.83;96227.44;4234517;28;5722;-65
2022/05/29 10:06:11;;;;;;;;;;;;;;;20.03;30.91;96234.69;4234095;28;5950;-65
2022/05/29 10:08:19;;;;;;;;;;;;;;;20.06;30.75;96238.72;4234272;28;5742;-65
2022/05/29 10:10:33;;;;;;;;;;;;;;;20.08;30.88;96239.25;4230917;28;5699;-66
2022/05/29 10:12:42;;;;;;;;;;;;;;;20.15;30.79;96244.34;4214900;28;5774;-65
2022/05/29 10:14:46;;;;;;;;;;;;;;;20.23;30.62;96235.78;4233390;28;5816;-65
2022/05/29 10:16:50;;;;;;;;;;;;;;;20.29;30.53;96235.53;4210279;28;5769;-66
2022/05/29 10:18:53;;;;;;;;;;;;;;;20.38;30.45;96233.09;4215326;28;5992;-65
2022/05/29 10:21:07;;;;;;;;;;;;;;;20.46;30.51;96240.66;4233948;28;5776;-64
2022/05/29 10:23:28;;;;;;;;;;;;;;;20.51;30.23;96237.19;4217116;28;5714;-64
2022/05/29 10:25:41;;;;;;;;;;;;;;;20.45;30.35;96239.03;4217167;28;5723;-65
2022/05/29 10:27:48;;;;;;;;;;;;;;;20.40;30.28;96230.16;4198800;28;5850;-65
2022/05/29 10:29:54;;;;;;;;;;;;;;;20.40;30.06;96232.84;4216891;28;5063;-65
2022/05/29 10:32:00;;;;;;;;;;;;;;;20.44;30.02;96225.88;4216963;28;5714;-65
2022/05/29 10:34:06;;;;;;;;;;;;;;;20.52;29.87;96222.66;4224399;28;5680;-65
2022/05/29 10:36:14;;;;;;;;;;;;;;;20.60;30.10;96240.91;4214275;28;5734;-66
2022/05/29 10:38:27;;;;;;;;;;;;;;;20.61;29.72;96219.19;4233873;28;5699;-65
2022/05/29 10:40:32;;;;;;;;;;;;;;;20.61;29.74;96212.97;4215064;28;5871;-67
2022/05/29 10:42:44;;;;;;;;;;;;;;;20.67;29.36;96216.47;4233723;28;5839;-66
2022/05/29 10:44:48;;;;;;;;;;;;;;;20.70;29.52;96214.03;4215296;28;5785;-65
2022/05/29 10:46:56;;;;;;;;;;;;;;;20.73;29.38;96218.88;4233786;28;5926;-66
2022/05/29 10:49:18;;;;;;;;;;;;;;;20.71;29.22;96218.31;4233617;28;5774;-66
2022/05/29 10:51:23;;;;;;;;;;;;;;;20.70;28.95;96214.03;4233586;28;5781;-66
2022/05/29 10:53:42;;;;;;;;;;;;;;;20.73;29.10;96213.50;4233399;28;5699;-66
2022/05/29 10:55:55;;;;;;;;;;;;;;;20.77;28.99;96214.56;4231461;28;5699;-69
2022/05/29 10:58:14;;;;;;;;;;;;;;;20.77;28.92;96214.56;4233363;28;5710;-66
2022/05/29 11:00:37;;;;;;;;;;;;;;;20.74;28.79;96208.94;4233373;28;5698;-65
2022/05/29 11:03:19;;;;;;;;;;;;;;;20.84;29.09;96206.25;4233342;28;5715;-66
2022/05/29 11:05:41;;;;;;;;;;;;;;;20.92;28.78;96201.09;4146513;28;5855;-66
2022/05/29 11:07:58;;;;;;;;;;;;;;;20.98;28.67;96201.91;4141787;28;5858;-66
2022/05/29 11:10:24;;;;;;;;;;;;;;;20.94;28.64;96219.63;4131310;28;5825;-65
2022/05/29 11:12:41;;;;;;;;;;;;;;;20.84;28.84;96199.00;4147801;28;5813;-66
2022/05/29 11:15:00;;;;;;;;;;;;;;;20.78;28.58;96200.06;4131292;28;5885;-66
2022/05/29 11:17:16;;;;;;;;;;;;;;;20.70;28.78;96200.59;4131488;28;5903;-66
2022/05/29 11:19:47;;;;;;;;;;;;;;;20.69;28.78;96196.31;4130985;28;5963;-65
2022/05/29 11:22:04;;;;;;;;;;;;;;;20.68;28.72;96189.34;4131038;28;5892;-65
2022/05/29 11:24:23;;;;;;;;;;;;;;;20.71;28.66;96180.72;4131434;28;5816;-66
2022/05/29 11:26:43;;;;;;;;;;;;;;;20.77;28.61;96187.72;4131269;28;5883;-65
2022/05/29 11:29:01;;;;;;;;;;;;;;;20.80;28.54;96181.78;4131429;28;5931;-65
2022/05/29 11:31:47;;;;;;;;;;;;;;;20.75;28.41;96184.50;4131374;28;5888;-65
2022/05/29 11:34:04;;;;;;;;;;;;;;;20.74;28.40;96190.16;4131078;28;6547;-65
2022/05/29 11:36:23;;;;;;;;;;;;;;;20.74;28.15;96171.34;4133639;28;5816;-65
2022/05/29 11:38:49;;;;;;;;;;;;;;;20.79;28.06;96180.19;4132946;28;5900;-66